sensor_id;sensor_type;location;lat;lon;timestamp;temperature;humidity
43581;DHT22;29175;51.030;4.606;2022-07-29T00:00:52;21.70;89.80
43581;DHT22;29175;51.030;4.606;2022-07-29T00:03:18;21.60;90.00
43581;DHT22;29175;51.030;4.606;2022-07-29T00:05:46;21.60;89.90
43581;DHT22;29175;51.030;4.606;2022-07-29T00:08:13;21.50;90.10
43581;DHT22;29175;51.030;4.606;2022-07-29T00:10:43;21.60;90.20
43581;DHT22;29175;51.030;4.606;2022-07-29T00:13:11;21.30;90.50
43581;DHT22;29175;51.030;4.606;2022-07-29T00:15:37;21.30;90.40
43581;DHT22;29175;51.030;4.606;2022-07-29T00:18:05;21.30;90.40
43581;DHT22;29175;51.030;4.606;2022-07-29T00:20:33;21.30;90.40
43581;DHT22;29175;51.030;4.606;2022-07-29T00:23:01;21.20;90.60
43581;DHT22;29175;51.030;4.606;2022-07-29T00:25:29;21.20;90.60
43581;DHT22;29175;51.030;4.606;2022-07-29T00:27:55;21.00;90.90
43581;DHT22;29175;51.030;4.606;2022-07-29T00:30:24;21.00;91.00
43581;DHT22;29175;51.030;4.606;2022-07-29T00:32:51;20.70;91.10
43581;DHT22;29175;51.030;4.606;2022-07-29T00:35:19;20.70;91.30
43581;DHT22;29175;51.030;4.606;2022-07-29T00:38:03;20.70;90.90
43581;DHT22;29175;51.030;4.606;2022-07-29T00:40:30;20.90;91.30
43581;DHT22;29175;51.030;4.606;2022-07-29T00:42:57;20.70;91.10
43581;DHT22;29175;51.030;4.606;2022-07-29T00:45:23;20.70;91.40
43581;DHT22;29175;51.030;4.606;2022-07-29T00:47:49;20.90;91.00
43581;DHT22;29175;51.030;4.606;2022-07-29T00:50:15;20.70;90.90
43581;DHT22;29175;51.030;4.606;2022-07-29T00:52:43;20.80;91.10
43581;DHT22;29175;51.030;4.606;2022-07-29T00:55:13;20.80;90.80
43581;DHT22;29175;51.030;4.606;2022-07-29T00:57:46;20.80;90.90
43581;DHT22;29175;51.030;4.606;2022-07-29T01:00:15;20.80;90.90
43581;DHT22;29175;51.030;4.606;2022-07-29T01:02:46;20.70;90.90
43581;DHT22;29175;51.030;4.606;2022-07-29T01:05:17;20.70;91.00
43581;DHT22;29175;51.030;4.606;2022-07-29T01:07:45;20.50;91.00
43581;DHT22;29175;51.030;4.606;2022-07-29T01:10:13;20.50;91.20
43581;DHT22;29175;51.030;4.606;2022-07-29T01:12:40;20.40;91.30
43581;DHT22;29175;51.030;4.606;2022-07-29T01:15:09;20.20;91.60
43581;DHT22;29175;51.030;4.606;2022-07-29T01:18:07;20.10;91.70
43581;DHT22;29175;51.030;4.606;2022-07-29T01:26:19;20.90;91.10
43581;DHT22;29175;51.030;4.606;2022-07-29T01:28:59;20.90;90.80
43581;DHT22;29175;51.030;4.606;2022-07-29T01:31:38;20.60;91.10
43581;DHT22;29175;51.030;4.606;2022-07-29T01:34:21;20.40;91.30
43581;DHT22;29175;51.030;4.606;2022-07-29T01:37:02;20.60;91.20
43581;DHT22;29175;51.030;4.606;2022-07-29T01:39:37;20.70;91.10
43581;DHT22;29175;51.030;4.606;2022-07-29T01:42:23;20.60;91.20
43581;DHT22;29175;51.030;4.606;2022-07-29T01:45:37;20.70;91.20
43581;DHT22;29175;51.030;4.606;2022-07-29T01:52:00;20.70;91.00
43581;DHT22;29175;51.030;4.606;2022-07-29T01:57:13;20.40;91.50
43581;DHT22;29175;51.030;4.606;2022-07-29T01:59:42;20.50;91.50
43581;DHT22;29175;51.030;4.606;2022-07-29T02:02:10;20.50;91.60
43581;DHT22;29175;51.030;4.606;2022-07-29T02:04:40;20.20;91.90
43581;DHT22;29175;51.030;4.606;2022-07-29T02:07:07;20.20;92.00
43581;DHT22;29175;51.030;4.606;2022-07-29T02:09:39;20.30;91.70
43581;DHT22;29175;51.030;4.606;2022-07-29T02:12:07;20.50;91.70
43581;DHT22;29175;51.030;4.606;2022-07-29T02:14:42;20.40;91.80
43581;DHT22;29175;51.030;4.606;2022-07-29T02:17:10;20.50;91.70
43581;DHT22;29175;51.030;4.606;2022-07-29T02:19:38;20.20;91.80
43581;DHT22;29175;51.030;4.606;2022-07-29T02:22:06;20.10;91.90
43581;DHT22;29175;51.030;4.606;2022-07-29T02:24:37;20.10;92.10
43581;DHT22;29175;51.030;4.606;2022-07-29T02:27:07;20.20;92.00
43581;DHT22;29175;51.030;4.606;2022-07-29T02:29:35;20.20;91.90
43581;DHT22;29175;51.030;4.606;2022-07-29T02:32:03;20.30;92.00
43581;DHT22;29175;51.030;4.606;2022-07-29T02:34:32;20.30;92.30
43581;DHT22;29175;51.030;4.606;2022-07-29T02:37:02;20.20;91.90
43581;DHT22;29175;51.030;4.606;2022-07-29T02:39:30;20.20;92.00
43581;DHT22;29175;51.030;4.606;2022-07-29T02:42:07;20.10;92.30
43581;DHT22;29175;51.030;4.606;2022-07-29T02:44:34;20.00;92.50
43581;DHT22;29175;51.030;4.606;2022-07-29T02:49:55;19.90;92.60
43581;DHT22;29175;51.030;4.606;2022-07-29T02:52:44;19.90;92.70
43581;DHT22;29175;51.030;4.606;2022-07-29T02:55:25;19.90;92.70
43581;DHT22;29175;51.030;4.606;2022-07-29T02:58:00;19.80;92.90
43581;DHT22;29175;51.030;4.606;2022-07-29T03:00:31;19.70;93.00
43581;DHT22;29175;51.030;4.606;2022-07-29T03:03:04;19.70;93.10
43581;DHT22;29175;51.030;4.606;2022-07-29T03:05:31;19.70;93.20
43581;DHT22;29175;51.030;4.606;2022-07-29T03:08:02;19.60;93.30
43581;DHT22;29175;51.030;4.606;2022-07-29T03:10:30;19.50;93.40
43581;DHT22;29175;51.030;4.606;2022-07-29T03:13:00;19.60;93.30
43581;DHT22;29175;51.030;4.606;2022-07-29T03:15:32;19.30;93.60
43581;DHT22;29175;51.030;4.606;2022-07-29T03:17:59;19.00;94.00
43581;DHT22;29175;51.030;4.606;2022-07-29T03:20:27;18.90;94.30
43581;DHT22;29175;51.030;4.606;2022-07-29T03:22:53;18.80;94.40
43581;DHT22;29175;51.030;4.606;2022-07-29T03:25:25;18.80;94.60
43581;DHT22;29175;51.030;4.606;2022-07-29T03:27:52;18.90;94.40
43581;DHT22;29175;51.030;4.606;2022-07-29T03:30:19;18.80;94.50
43581;DHT22;29175;51.030;4.606;2022-07-29T03:32:47;18.70;94.70
43581;DHT22;29175;51.030;4.606;2022-07-29T03:35:16;18.60;94.90
43581;DHT22;29175;51.030;4.606;2022-07-29T03:37:43;18.80;94.70
43581;DHT22;29175;51.030;4.606;2022-07-29T03:40:10;18.90;94.50
43581;DHT22;29175;51.030;4.606;2022-07-29T03:42:39;19.00;94.40
43581;DHT22;29175;51.030;4.606;2022-07-29T03:45:16;19.00;94.40
43581;DHT22;29175;51.030;4.606;2022-07-29T03:47:47;19.00;94.40
43581;DHT22;29175;51.030;4.606;2022-07-29T03:50:17;18.80;94.70
43581;DHT22;29175;51.030;4.606;2022-07-29T03:52:47;18.90;94.60
43581;DHT22;29175;51.030;4.606;2022-07-29T03:55:19;18.90;94.60
43581;DHT22;29175;51.030;4.606;2022-07-29T03:57:46;18.90;94.60
43581;DHT22;29175;51.030;4.606;2022-07-29T04:00:14;18.70;95.00
43581;DHT22;29175;51.030;4.606;2022-07-29T04:02:41;18.70;95.00
43581;DHT22;29175;51.030;4.606;2022-07-29T04:05:15;18.70;95.00
43581;DHT22;29175;51.030;4.606;2022-07-29T04:07:45;18.70;95.10
43581;DHT22;29175;51.030;4.606;2022-07-29T04:10:12;18.70;95.20
43581;DHT22;29175;51.030;4.606;2022-07-29T04:12:39;18.70;95.20
43581;DHT22;29175;51.030;4.606;2022-07-29T04:15:06;18.70;95.30
43581;DHT22;29175;51.030;4.606;2022-07-29T04:17:35;18.70;95.20
43581;DHT22;29175;51.030;4.606;2022-07-29T04:20:01;18.70;95.50
43581;DHT22;29175;51.030;4.606;2022-07-29T04:22:28;18.70;95.20
43581;DHT22;29175;51.030;4.606;2022-07-29T04:24:55;18.70;95.30
43581;DHT22;29175;51.030;4.606;2022-07-29T04:27:23;18.60;95.50
43581;DHT22;29175;51.030;4.606;2022-07-29T04:29:50;18.60;95.60
43581;DHT22;29175;51.030;4.606;2022-07-29T04:32:16;18.70;95.70
43581;DHT22;29175;51.030;4.606;2022-07-29T04:34:43;18.70;95.60
43581;DHT22;29175;51.030;4.606;2022-07-29T04:37:12;18.70;95.80
43581;DHT22;29175;51.030;4.606;2022-07-29T04:39:38;18.70;95.90
43581;DHT22;29175;51.030;4.606;2022-07-29T04:42:04;18.60;96.50
43581;DHT22;29175;51.030;4.606;2022-07-29T04:44:32;18.60;96.10
43581;DHT22;29175;51.030;4.606;2022-07-29T04:46:59;18.60;96.20
43581;DHT22;29175;51.030;4.606;2022-07-29T04:49:25;18.60;96.30
43581;DHT22;29175;51.030;4.606;2022-07-29T04:51:51;18.60;96.40
43581;DHT22;29175;51.030;4.606;2022-07-29T04:54:20;18.60;96.50
43581;DHT22;29175;51.030;4.606;2022-07-29T04:56:46;18.60;96.60
43581;DHT22;29175;51.030;4.606;2022-07-29T04:59:14;18.70;96.60
43581;DHT22;29175;51.030;4.606;2022-07-29T05:01:41;18.80;96.40
43581;DHT22;29175;51.030;4.606;2022-07-29T05:04:08;18.90;96.50
43581;DHT22;29175;51.030;4.606;2022-07-29T05:06:34;18.90;96.40
43581;DHT22;29175;51.030;4.606;2022-07-29T05:09:00;19.00;96.20
43581;DHT22;29175;51.030;4.606;2022-07-29T05:11:28;19.10;96.00
43581;DHT22;29175;51.030;4.606;2022-07-29T05:13:53;19.20;96.00
43581;DHT22;29175;51.030;4.606;2022-07-29T05:16:20;19.20;95.70
43581;DHT22;29175;51.030;4.606;2022-07-29T05:18:49;19.30;96.00
43581;DHT22;29175;51.030;4.606;2022-07-29T05:21:17;19.60;95.80
43581;DHT22;29175;51.030;4.606;2022-07-29T05:23:46;19.80;95.20
43581;DHT22;29175;51.030;4.606;2022-07-29T05:26:12;19.60;95.30
43581;DHT22;29175;51.030;4.606;2022-07-29T05:28:38;19.30;95.60
43581;DHT22;29175;51.030;4.606;2022-07-29T05:31:07;19.40;96.20
43581;DHT22;29175;51.030;4.606;2022-07-29T05:33:33;19.50;95.80
43581;DHT22;29175;51.030;4.606;2022-07-29T05:36:00;19.70;95.60
43581;DHT22;29175;51.030;4.606;2022-07-29T05:38:26;19.80;95.40
43581;DHT22;29175;51.030;4.606;2022-07-29T05:40:55;19.70;95.60
43581;DHT22;29175;51.030;4.606;2022-07-29T05:43:21;19.90;95.40
43581;DHT22;29175;51.030;4.606;2022-07-29T05:45:48;19.90;95.30
43581;DHT22;29175;51.030;4.606;2022-07-29T05:48:15;20.10;94.80
43581;DHT22;29175;51.030;4.606;2022-07-29T05:50:43;20.10;94.90
43581;DHT22;29175;51.030;4.606;2022-07-29T05:53:09;20.00;95.10
43581;DHT22;29175;51.030;4.606;2022-07-29T05:55:37;20.00;95.20
43581;DHT22;29175;51.030;4.606;2022-07-29T05:58:05;20.10;94.90
43581;DHT22;29175;51.030;4.606;2022-07-29T06:00:31;20.20;94.80
43581;DHT22;29175;51.030;4.606;2022-07-29T06:02:59;20.10;95.00
43581;DHT22;29175;51.030;4.606;2022-07-29T06:05:25;20.00;94.70
43581;DHT22;29175;51.030;4.606;2022-07-29T06:07:53;20.00;95.10
43581;DHT22;29175;51.030;4.606;2022-07-29T06:10:19;20.30;94.70
43581;DHT22;29175;51.030;4.606;2022-07-29T06:12:47;20.00;95.30
43581;DHT22;29175;51.030;4.606;2022-07-29T06:15:15;20.20;94.90
43581;DHT22;29175;51.030;4.606;2022-07-29T06:17:42;20.30;94.80
43581;DHT22;29175;51.030;4.606;2022-07-29T06:20:08;20.60;94.40
43581;DHT22;29175;51.030;4.606;2022-07-29T06:22:35;21.00;93.30
43581;DHT22;29175;51.030;4.606;2022-07-29T06:25:04;21.20;93.10
43581;DHT22;29175;51.030;4.606;2022-07-29T06:27:30;21.20;93.00
43581;DHT22;29175;51.030;4.606;2022-07-29T06:29:56;21.00;93.40
43581;DHT22;29175;51.030;4.606;2022-07-29T06:32:23;21.30;93.50
43581;DHT22;29175;51.030;4.606;2022-07-29T06:34:49;21.50;92.80
43581;DHT22;29175;51.030;4.606;2022-07-29T06:37:16;21.50;92.90
43581;DHT22;29175;51.030;4.606;2022-07-29T06:39:42;21.50;93.10
43581;DHT22;29175;51.030;4.606;2022-07-29T06:42:10;21.60;92.80
43581;DHT22;29175;51.030;4.606;2022-07-29T06:44:42;21.60;92.70
43581;DHT22;29175;51.030;4.606;2022-07-29T06:47:09;21.60;92.70
43581;DHT22;29175;51.030;4.606;2022-07-29T06:49:34;21.80;93.20
43581;DHT22;29175;51.030;4.606;2022-07-29T06:52:04;22.70;92.20
43581;DHT22;29175;51.030;4.606;2022-07-29T06:54:36;23.80;91.30
43581;DHT22;29175;51.030;4.606;2022-07-29T06:57:02;25.40;87.20
43581;DHT22;29175;51.030;4.606;2022-07-29T06:59:28;26.50;84.20
43581;DHT22;29175;51.030;4.606;2022-07-29T07:01:54;27.50;82.90
43581;DHT22;29175;51.030;4.606;2022-07-29T07:04:20;27.50;81.70
43581;DHT22;29175;51.030;4.606;2022-07-29T07:06:46;27.60;81.10
43581;DHT22;29175;51.030;4.606;2022-07-29T07:09:14;28.50;79.80
43581;DHT22;29175;51.030;4.606;2022-07-29T07:11:41;29.00;79.00
43581;DHT22;29175;51.030;4.606;2022-07-29T07:14:09;28.40;78.60
43581;DHT22;29175;51.030;4.606;2022-07-29T07:16:35;29.00;79.40
43581;DHT22;29175;51.030;4.606;2022-07-29T07:19:01;29.90;77.10
43581;DHT22;29175;51.030;4.606;2022-07-29T07:21:30;30.40;76.10
43581;DHT22;29175;51.030;4.606;2022-07-29T07:23:57;31.00;76.60
43581;DHT22;29175;51.030;4.606;2022-07-29T07:26:26;31.50;74.20
43581;DHT22;29175;51.030;4.606;2022-07-29T07:28:52;32.10;74.40
43581;DHT22;29175;51.030;4.606;2022-07-29T07:31:20;32.70;72.80
43581;DHT22;29175;51.030;4.606;2022-07-29T07:33:46;33.30;72.60
43581;DHT22;29175;51.030;4.606;2022-07-29T07:36:12;33.10;72.20
43581;DHT22;29175;51.030;4.606;2022-07-29T07:38:39;33.70;71.50
43581;DHT22;29175;51.030;4.606;2022-07-29T07:41:05;33.80;69.70
43581;DHT22;29175;51.030;4.606;2022-07-29T07:43:34;34.40;69.40
43581;DHT22;29175;51.030;4.606;2022-07-29T07:46:01;34.80;69.10
43581;DHT22;29175;51.030;4.606;2022-07-29T07:48:29;34.70;68.80
43581;DHT22;29175;51.030;4.606;2022-07-29T07:50:56;35.00;69.20
43581;DHT22;29175;51.030;4.606;2022-07-29T07:53:24;35.60;68.70
43581;DHT22;29175;51.030;4.606;2022-07-29T07:55:55;35.50;69.00
43581;DHT22;29175;51.030;4.606;2022-07-29T07:58:23;36.10;68.10
43581;DHT22;29175;51.030;4.606;2022-07-29T08:00:49;36.60;66.80
43581;DHT22;29175;51.030;4.606;2022-07-29T08:03:14;36.80;66.30
43581;DHT22;29175;51.030;4.606;2022-07-29T08:05:41;36.70;66.60
43581;DHT22;29175;51.030;4.606;2022-07-29T08:08:10;37.20;65.90
43581;DHT22;29175;51.030;4.606;2022-07-29T08:10:37;37.70;66.00
43581;DHT22;29175;51.030;4.606;2022-07-29T08:13:22;37.80;65.00
43581;DHT22;29175;51.030;4.606;2022-07-29T08:15:51;38.30;64.40
43581;DHT22;29175;51.030;4.606;2022-07-29T08:18:30;38.60;64.20
43581;DHT22;29175;51.030;4.606;2022-07-29T08:20:57;38.80;63.30
43581;DHT22;29175;51.030;4.606;2022-07-29T08:23:25;37.30;64.80
43581;DHT22;29175;51.030;4.606;2022-07-29T08:25:53;37.00;66.50
43581;DHT22;29175;51.030;4.606;2022-07-29T08:28:19;38.10;63.10
43581;DHT22;29175;51.030;4.606;2022-07-29T08:30:45;38.20;65.60
43581;DHT22;29175;51.030;4.606;2022-07-29T08:33:12;39.10;63.90
43581;DHT22;29175;51.030;4.606;2022-07-29T08:35:38;39.70;62.90
43581;DHT22;29175;51.030;4.606;2022-07-29T08:38:05;40.10;63.20
43581;DHT22;29175;51.030;4.606;2022-07-29T08:40:31;40.10;63.10
43581;DHT22;29175;51.030;4.606;2022-07-29T08:42:57;40.30;62.70
43581;DHT22;29175;51.030;4.606;2022-07-29T08:45:23;40.90;62.20
43581;DHT22;29175;51.030;4.606;2022-07-29T08:47:52;41.60;61.50
43581;DHT22;29175;51.030;4.606;2022-07-29T08:50:21;42.00;60.80
43581;DHT22;29175;51.030;4.606;2022-07-29T08:52:48;40.60;61.40
43581;DHT22;29175;51.030;4.606;2022-07-29T08:55:15;40.40;62.40
43581;DHT22;29175;51.030;4.606;2022-07-29T08:57:42;40.80;62.60
43581;DHT22;29175;51.030;4.606;2022-07-29T09:00:08;39.90;61.80
43581;DHT22;29175;51.030;4.606;2022-07-29T09:02:39;39.30;63.50
43581;DHT22;29175;51.030;4.606;2022-07-29T09:05:06;40.70;62.40
43581;DHT22;29175;51.030;4.606;2022-07-29T09:07:32;41.20;61.90
43581;DHT22;29175;51.030;4.606;2022-07-29T09:09:59;41.20;61.90
43581;DHT22;29175;51.030;4.606;2022-07-29T09:12:25;41.80;60.40
43581;DHT22;29175;51.030;4.606;2022-07-29T09:14:53;42.10;59.90
43581;DHT22;29175;51.030;4.606;2022-07-29T09:17:48;41.60;59.30
43581;DHT22;29175;51.030;4.606;2022-07-29T09:20:16;43.10;59.40
43581;DHT22;29175;51.030;4.606;2022-07-29T09:22:42;42.30;58.90
43581;DHT22;29175;51.030;4.606;2022-07-29T09:25:08;42.10;58.80
43581;DHT22;29175;51.030;4.606;2022-07-29T09:27:34;41.60;59.10
43581;DHT22;29175;51.030;4.606;2022-07-29T09:30:05;41.30;59.70
43581;DHT22;29175;51.030;4.606;2022-07-29T09:32:32;41.60;59.10
43581;DHT22;29175;51.030;4.606;2022-07-29T09:35:19;41.80;58.80
43581;DHT22;29175;51.030;4.606;2022-07-29T09:37:46;41.80;59.00
43581;DHT22;29175;51.030;4.606;2022-07-29T09:40:19;42.40;58.50
43581;DHT22;29175;51.030;4.606;2022-07-29T09:42:46;42.90;57.60
43581;DHT22;29175;51.030;4.606;2022-07-29T09:45:32;42.60;58.10
43581;DHT22;29175;51.030;4.606;2022-07-29T09:48:13;42.70;57.60
43581;DHT22;29175;51.030;4.606;2022-07-29T09:50:44;43.40;58.50
43581;DHT22;29175;51.030;4.606;2022-07-29T09:53:11;43.10;57.00
43581;DHT22;29175;51.030;4.606;2022-07-29T09:55:51;43.90;57.00
43581;DHT22;29175;51.030;4.606;2022-07-29T09:58:21;44.10;57.30
43581;DHT22;29175;51.030;4.606;2022-07-29T10:00:50;44.30;57.50
43581;DHT22;29175;51.030;4.606;2022-07-29T10:03:17;43.50;57.30
43581;DHT22;29175;51.030;4.606;2022-07-29T10:05:44;44.20;56.70
43581;DHT22;29175;51.030;4.606;2022-07-29T10:08:11;43.20;57.10
43581;DHT22;29175;51.030;4.606;2022-07-29T10:10:42;41.20;57.50
43581;DHT22;29175;51.030;4.606;2022-07-29T10:13:13;41.40;57.70
43581;DHT22;29175;51.030;4.606;2022-07-29T10:15:40;42.20;58.40
43581;DHT22;29175;51.030;4.606;2022-07-29T10:18:11;43.20;56.50
43581;DHT22;29175;51.030;4.606;2022-07-29T10:20:37;42.60;56.90
43581;DHT22;29175;51.030;4.606;2022-07-29T10:23:03;42.00;57.20
43581;DHT22;29175;51.030;4.606;2022-07-29T10:25:32;41.90;58.00
43581;DHT22;29175;51.030;4.606;2022-07-29T10:27:59;42.40;57.50
43581;DHT22;29175;51.030;4.606;2022-07-29T10:30:26;42.40;57.10
43581;DHT22;29175;51.030;4.606;2022-07-29T10:33:20;42.70;56.30
43581;DHT22;29175;51.030;4.606;2022-07-29T10:36:13;44.00;55.80
43581;DHT22;29175;51.030;4.606;2022-07-29T10:41:46;44.30;55.30
43581;DHT22;29175;51.030;4.606;2022-07-29T10:44:20;43.70;55.50
43581;DHT22;29175;51.030;4.606;2022-07-29T10:46:48;43.60;55.50
43581;DHT22;29175;51.030;4.606;2022-07-29T10:49:22;44.10;53.90
43581;DHT22;29175;51.030;4.606;2022-07-29T10:54:44;45.30;53.60
43581;DHT22;29175;51.030;4.606;2022-07-29T11:05:10;44.20;55.10
43581;DHT22;29175;51.030;4.606;2022-07-29T11:10:44;44.50;53.80
43581;DHT22;29175;51.030;4.606;2022-07-29T11:13:13;43.70;54.90
43581;DHT22;29175;51.030;4.606;2022-07-29T11:15:59;43.40;55.10
43581;DHT22;29175;51.030;4.606;2022-07-29T11:18:26;44.10;54.20
43581;DHT22;29175;51.030;4.606;2022-07-29T11:20:53;43.90;52.70
43581;DHT22;29175;51.030;4.606;2022-07-29T11:23:26;42.60;53.60
43581;DHT22;29175;51.030;4.606;2022-07-29T11:28:58;42.00;55.80
43581;DHT22;29175;51.030;4.606;2022-07-29T11:31:38;42.20;55.10
43581;DHT22;29175;51.030;4.606;2022-07-29T11:34:29;42.70;55.20
43581;DHT22;29175;51.030;4.606;2022-07-29T11:47:28;42.40;55.80
43581;DHT22;29175;51.030;4.606;2022-07-29T11:49:56;41.80;55.70
43581;DHT22;29175;51.030;4.606;2022-07-29T11:52:24;42.00;55.50
43581;DHT22;29175;51.030;4.606;2022-07-29T11:55:02;41.90;55.70
43581;DHT22;29175;51.030;4.606;2022-07-29T11:57:29;41.10;56.30
43581;DHT22;29175;51.030;4.606;2022-07-29T11:59:58;40.30;56.10
43581;DHT22;29175;51.030;4.606;2022-07-29T12:02:24;39.40;56.20
43581;DHT22;29175;51.030;4.606;2022-07-29T12:05:06;38.80;57.00
43581;DHT22;29175;51.030;4.606;2022-07-29T12:07:33;38.40;57.40
43581;DHT22;29175;51.030;4.606;2022-07-29T12:10:01;38.00;58.10
43581;DHT22;29175;51.030;4.606;2022-07-29T12:12:27;37.00;59.50
43581;DHT22;29175;51.030;4.606;2022-07-29T12:14:54;36.80;59.20
43581;DHT22;29175;51.030;4.606;2022-07-29T12:17:31;34.90;60.30
43581;DHT22;29175;51.030;4.606;2022-07-29T12:20:01;34.30;60.40
43581;DHT22;29175;51.030;4.606;2022-07-29T12:22:33;33.90;62.20
43581;DHT22;29175;51.030;4.606;2022-07-29T12:25:13;34.10;61.70
43581;DHT22;29175;51.030;4.606;2022-07-29T12:27:44;34.50;61.10
43581;DHT22;29175;51.030;4.606;2022-07-29T12:30:13;33.90;60.90
43581;DHT22;29175;51.030;4.606;2022-07-29T12:32:44;33.10;61.20
43581;DHT22;29175;51.030;4.606;2022-07-29T12:35:20;33.00;61.30
43581;DHT22;29175;51.030;4.606;2022-07-29T12:37:47;32.80;62.10
43581;DHT22;29175;51.030;4.606;2022-07-29T12:40:18;33.40;61.60
43581;DHT22;29175;51.030;4.606;2022-07-29T12:43:07;33.40;61.80
43581;DHT22;29175;51.030;4.606;2022-07-29T12:45:39;32.90;62.30
43581;DHT22;29175;51.030;4.606;2022-07-29T12:48:11;32.60;64.10
43581;DHT22;29175;51.030;4.606;2022-07-29T12:50:59;32.90;63.90
43581;DHT22;29175;51.030;4.606;2022-07-29T12:53:27;33.20;63.60
43581;DHT22;29175;51.030;4.606;2022-07-29T12:55:55;33.10;62.00
43581;DHT22;29175;51.030;4.606;2022-07-29T12:58:32;33.30;62.40
43581;DHT22;29175;51.030;4.606;2022-07-29T13:03:46;33.50;62.80
43581;DHT22;29175;51.030;4.606;2022-07-29T13:06:41;32.60;63.90
43581;DHT22;29175;51.030;4.606;2022-07-29T13:09:14;32.60;64.00
43581;DHT22;29175;51.030;4.606;2022-07-29T13:11:45;32.70;64.50
43581;DHT22;29175;51.030;4.606;2022-07-29T13:14:30;32.90;65.00
43581;DHT22;29175;51.030;4.606;2022-07-29T13:17:11;32.80;64.80
43581;DHT22;29175;51.030;4.606;2022-07-29T13:19:44;32.20;64.00
43581;DHT22;29175;51.030;4.606;2022-07-29T13:22:16;31.90;64.90
43581;DHT22;29175;51.030;4.606;2022-07-29T13:27:26;31.90;64.60
43581;DHT22;29175;51.030;4.606;2022-07-29T13:29:52;31.80;65.90
43581;DHT22;29175;51.030;4.606;2022-07-29T13:32:20;31.80;65.20
43581;DHT22;29175;51.030;4.606;2022-07-29T13:34:46;31.60;65.60
43581;DHT22;29175;51.030;4.606;2022-07-29T13:37:13;31.50;65.50
43581;DHT22;29175;51.030;4.606;2022-07-29T13:39:45;31.40;66.00
43581;DHT22;29175;51.030;4.606;2022-07-29T13:42:12;31.70;66.50
43581;DHT22;29175;51.030;4.606;2022-07-29T13:44:40;32.00;65.50
43581;DHT22;29175;51.030;4.606;2022-07-29T13:47:07;31.70;66.00
43581;DHT22;29175;51.030;4.606;2022-07-29T13:49:33;31.60;65.80
43581;DHT22;29175;51.030;4.606;2022-07-29T13:51:59;31.80;65.10
43581;DHT22;29175;51.030;4.606;2022-07-29T13:54:25;31.20;65.10
43581;DHT22;29175;51.030;4.606;2022-07-29T13:56:52;31.20;66.10
43581;DHT22;29175;51.030;4.606;2022-07-29T13:59:21;31.20;65.70
43581;DHT22;29175;51.030;4.606;2022-07-29T14:01:49;31.50;65.50
43581;DHT22;29175;51.030;4.606;2022-07-29T14:04:16;31.60;65.80
43581;DHT22;29175;51.030;4.606;2022-07-29T14:06:44;31.50;66.10
43581;DHT22;29175;51.030;4.606;2022-07-29T14:09:10;31.50;67.50
43581;DHT22;29175;51.030;4.606;2022-07-29T14:11:35;31.50;66.50
43581;DHT22;29175;51.030;4.606;2022-07-29T14:14:03;31.70;66.00
43581;DHT22;29175;51.030;4.606;2022-07-29T14:16:29;31.20;65.10
43581;DHT22;29175;51.030;4.606;2022-07-29T14:18:55;31.20;65.30
43581;DHT22;29175;51.030;4.606;2022-07-29T14:21:20;31.60;65.70
43581;DHT22;29175;51.030;4.606;2022-07-29T14:23:46;31.60;65.70
43581;DHT22;29175;51.030;4.606;2022-07-29T14:26:13;31.50;65.00
43581;DHT22;29175;51.030;4.606;2022-07-29T14:28:39;31.60;64.60
43581;DHT22;29175;51.030;4.606;2022-07-29T14:31:04;31.60;67.40
43581;DHT22;29175;51.030;4.606;2022-07-29T14:33:30;31.40;67.20
43581;DHT22;29175;51.030;4.606;2022-07-29T14:35:56;31.30;65.40
43581;DHT22;29175;51.030;4.606;2022-07-29T14:38:22;31.50;66.50
43581;DHT22;29175;51.030;4.606;2022-07-29T14:40:47;31.50;66.20
43581;DHT22;29175;51.030;4.606;2022-07-29T14:43:13;32.00;66.30
43581;DHT22;29175;51.030;4.606;2022-07-29T14:45:41;32.20;65.20
43581;DHT22;29175;51.030;4.606;2022-07-29T14:48:06;32.40;64.40
43581;DHT22;29175;51.030;4.606;2022-07-29T14:50:33;31.70;65.10
43581;DHT22;29175;51.030;4.606;2022-07-29T14:52:59;31.70;65.80
43581;DHT22;29175;51.030;4.606;2022-07-29T14:55:25;31.40;67.00
43581;DHT22;29175;51.030;4.606;2022-07-29T14:57:51;31.70;65.50
43581;DHT22;29175;51.030;4.606;2022-07-29T15:00:17;31.40;64.40
43581;DHT22;29175;51.030;4.606;2022-07-29T15:02:43;31.30;64.80
43581;DHT22;29175;51.030;4.606;2022-07-29T15:05:09;31.10;65.20
43581;DHT22;29175;51.030;4.606;2022-07-29T15:07:35;30.40;63.70
43581;DHT22;29175;51.030;4.606;2022-07-29T15:10:01;30.40;65.50
43581;DHT22;29175;51.030;4.606;2022-07-29T15:12:27;30.80;65.40
43581;DHT22;29175;51.030;4.606;2022-07-29T15:14:53;30.50;65.30
43581;DHT22;29175;51.030;4.606;2022-07-29T15:17:18;30.50;66.80
43581;DHT22;29175;51.030;4.606;2022-07-29T15:19:45;30.70;66.10
43581;DHT22;29175;51.030;4.606;2022-07-29T15:22:11;30.70;66.50
43581;DHT22;29175;51.030;4.606;2022-07-29T15:24:36;30.80;65.70
43581;DHT22;29175;51.030;4.606;2022-07-29T15:27:02;30.30;66.40
43581;DHT22;29175;51.030;4.606;2022-07-29T15:29:29;30.40;66.10
43581;DHT22;29175;51.030;4.606;2022-07-29T15:31:54;30.00;66.90
43581;DHT22;29175;51.030;4.606;2022-07-29T15:34:20;30.30;66.20
43581;DHT22;29175;51.030;4.606;2022-07-29T15:36:46;30.00;65.70
43581;DHT22;29175;51.030;4.606;2022-07-29T15:39:12;29.70;66.40
43581;DHT22;29175;51.030;4.606;2022-07-29T15:41:37;29.70;66.20
43581;DHT22;29175;51.030;4.606;2022-07-29T15:44:03;29.80;66.30
43581;DHT22;29175;51.030;4.606;2022-07-29T15:46:29;29.50;66.70
43581;DHT22;29175;51.030;4.606;2022-07-29T15:49:13;29.20;67.80
43581;DHT22;29175;51.030;4.606;2022-07-29T15:51:38;29.60;67.50
43581;DHT22;29175;51.030;4.606;2022-07-29T15:54:04;29.70;67.90
43581;DHT22;29175;51.030;4.606;2022-07-29T15:56:30;29.90;67.10
43581;DHT22;29175;51.030;4.606;2022-07-29T15:58:57;30.10;66.60
43581;DHT22;29175;51.030;4.606;2022-07-29T16:01:23;30.10;67.40
43581;DHT22;29175;51.030;4.606;2022-07-29T16:03:50;29.60;66.80
43581;DHT22;29175;51.030;4.606;2022-07-29T16:06:16;29.60;67.60
43581;DHT22;29175;51.030;4.606;2022-07-29T16:08:44;29.40;68.20
43581;DHT22;29175;51.030;4.606;2022-07-29T16:11:12;29.60;66.70
43581;DHT22;29175;51.030;4.606;2022-07-29T16:13:37;29.70;66.70
43581;DHT22;29175;51.030;4.606;2022-07-29T16:16:03;29.80;67.50
43581;DHT22;29175;51.030;4.606;2022-07-29T16:18:32;29.80;67.30
43581;DHT22;29175;51.030;4.606;2022-07-29T16:21:02;29.40;68.00
43581;DHT22;29175;51.030;4.606;2022-07-29T16:23:28;29.40;67.70
43581;DHT22;29175;51.030;4.606;2022-07-29T16:25:53;29.60;67.80
43581;DHT22;29175;51.030;4.606;2022-07-29T16:28:25;29.60;67.10
43581;DHT22;29175;51.030;4.606;2022-07-29T16:30:50;29.60;67.50
43581;DHT22;29175;51.030;4.606;2022-07-29T16:33:16;29.20;66.70